createdAt,value
2023-05-26T00:00:12.266Z,9.45
2023-05-26T00:05:14.649Z,9.82
2023-05-26T00:10:16.257Z,10.02
2023-05-26T00:15:18.018Z,9.32
2023-05-26T00:20:19.776Z,9.80
2023-05-26T00:25:21.455Z,10.48
2023-05-26T00:30:23.050Z,10.02
2023-05-26T00:35:24.691Z,9.32
2023-05-26T00:40:26.447Z,9.60
2023-05-26T00:45:28.044Z,10.85
2023-05-26T00:50:29.880Z,9.35
2023-05-26T00:55:32.327Z,8.75
2023-05-26T01:00:34.690Z,10.10
2023-05-26T01:05:36.278Z,9.27
2023-05-26T01:10:37.892Z,8.40
2023-05-26T01:15:57.478Z,9.25
2023-05-26T01:21:11.719Z,9.70
2023-05-26T01:26:50.737Z,8.32
2023-05-26T01:31:52.403Z,7.57
2023-05-26T01:36:54.005Z,6.85
2023-05-26T01:42:19.802Z,7.50
2023-05-26T01:47:33.288Z,6.53
2023-05-26T01:52:38.509Z,6.72
2023-05-26T01:57:43.996Z,6.22
2023-05-26T02:02:46.418Z,6.95
2023-05-26T02:07:48.135Z,7.63
2023-05-26T02:12:49.852Z,6.45
2023-05-26T02:17:51.463Z,6.03
2023-05-26T02:22:53.391Z,5.85
2023-05-26T02:27:55.033Z,5.70
2023-05-26T02:32:56.688Z,6.40
2023-05-26T02:37:58.374Z,5.70
2023-05-26T02:43:00.926Z,7.93
2023-05-26T02:48:02.497Z,6.05
2023-05-26T02:53:06.133Z,6.38
2023-05-26T02:58:07.793Z,5.50
2023-05-26T03:03:10.110Z,5.85
2023-05-26T03:08:11.759Z,5.85
2023-05-26T03:13:13.504Z,7.22
2023-05-26T03:18:15.365Z,5.22
2023-05-26T03:23:18.689Z,5.65
2023-05-26T03:28:20.360Z,5.68
2023-05-26T03:33:21.926Z,4.70
2023-05-26T03:38:23.639Z,5.40
2023-05-26T03:43:25.329Z,6.22
2023-05-26T03:48:27.757Z,7.03
2023-05-26T03:53:30.336Z,4.80
2023-05-26T03:58:32.617Z,5.85
2023-05-26T04:03:34.488Z,5.90
2023-05-26T04:08:36.548Z,5.70
2023-05-26T04:13:38.602Z,5.13
2023-05-26T04:18:40.929Z,5.18
2023-05-26T04:23:42.697Z,5.45
2023-05-26T04:28:44.406Z,5.63
2023-05-26T04:34:15.242Z,5.30
2023-05-26T04:39:31.904Z,5.80
2023-05-26T04:44:33.545Z,5.78
2023-05-26T04:49:36.941Z,5.53
2023-05-26T04:54:39.011Z,6.28
2023-05-26T04:59:40.943Z,5.47
2023-05-26T05:04:42.616Z,7.18
2023-05-26T05:09:44.358Z,5.90
2023-05-26T05:14:46.087Z,5.95
2023-05-26T05:19:49.599Z,5.85
2023-05-26T05:24:56.199Z,5.40
2023-05-26T05:29:57.837Z,5.85
2023-05-26T05:35:01.762Z,5.40
2023-05-26T05:40:05.531Z,4.38
2023-05-26T05:45:07.722Z,6.03
2023-05-26T05:50:41.353Z,5.00
2023-05-26T05:55:43.096Z,5.50
2023-05-26T06:00:45.121Z,5.55
2023-05-26T06:05:47.165Z,5.70
2023-05-26T06:10:49.183Z,5.13
2023-05-26T06:15:50.952Z,5.75
2023-05-26T06:20:54.622Z,5.60
2023-05-26T06:25:56.631Z,6.40
2023-05-26T06:30:58.626Z,7.57
2023-05-26T06:36:23.716Z,5.90
2023-05-26T06:41:26.681Z,6.15
2023-05-26T06:46:29.690Z,6.90
2023-05-26T06:51:31.340Z,6.43
2023-05-26T06:56:33.364Z,6.50
2023-05-26T07:01:35.829Z,6.15
2023-05-26T07:06:46.727Z,5.70
2023-05-26T07:11:50.375Z,6.38
2023-05-26T07:17:12.092Z,6.82
2023-05-26T07:22:15.200Z,6.63
2023-05-26T07:27:33.624Z,6.72
2023-05-26T07:32:35.519Z,6.28
2023-05-26T07:37:37.353Z,7.38
2023-05-26T07:42:38.968Z,7.35
2023-05-26T07:47:40.574Z,7.35
2023-05-26T07:52:42.311Z,6.57
2023-05-26T07:57:43.901Z,6.88
2023-05-26T08:02:45.615Z,6.72
2023-05-26T08:07:47.340Z,6.80
2023-05-26T08:12:49.106Z,6.65
2023-05-26T08:17:50.961Z,6.82
2023-05-26T08:22:52.623Z,7.15
2023-05-26T08:27:54.547Z,6.70
2023-05-26T08:32:56.229Z,6.95
2023-05-26T08:37:57.879Z,7.35
2023-05-26T08:43:03.873Z,7.35
2023-05-26T08:48:09.251Z,6.88
2023-05-26T08:53:10.882Z,6.72
2023-05-26T08:58:14.689Z,7.18
2023-05-26T09:03:16.405Z,7.18
2023-05-26T09:08:18.100Z,7.63
2023-05-26T09:13:19.921Z,7.90
2023-05-26T09:18:21.610Z,7.18
2023-05-26T09:23:23.309Z,6.90
2023-05-26T09:28:24.921Z,5.75
2023-05-26T09:33:26.528Z,6.95
2023-05-26T09:38:28.162Z,7.28
2023-05-26T09:43:34.078Z,8.45
2023-05-26T09:48:36.027Z,7.13
2023-05-26T09:53:37.586Z,7.40
2023-05-26T09:58:40.612Z,6.43
2023-05-26T10:03:42.365Z,6.38
2023-05-26T10:08:46.579Z,6.30
2023-05-26T10:13:48.388Z,7.68
2023-05-26T10:18:50.836Z,6.90
2023-05-26T10:24:02.940Z,6.97
2023-05-26T10:29:07.801Z,6.95
2023-05-26T10:34:14.037Z,5.35
2023-05-26T10:39:19.099Z,6.63
2023-05-26T10:44:40.928Z,6.70
2023-05-26T10:49:51.883Z,7.07
2023-05-26T10:54:53.672Z,6.57
2023-05-26T10:59:55.241Z,6.20
2023-05-26T11:04:56.902Z,7.05
2023-05-26T11:10:05.588Z,5.40
2023-05-26T11:15:29.252Z,6.28
2023-05-26T11:20:30.958Z,6.95
2023-05-26T11:25:44.528Z,6.82
2023-05-26T11:30:46.091Z,6.55
2023-05-26T11:35:47.669Z,6.15
2023-05-26T11:40:49.788Z,5.63
2023-05-26T11:45:54.875Z,6.65
2023-05-26T11:56:38.495Z,5.40
2023-05-26T12:01:40.146Z,5.03
2023-05-26T12:06:43.708Z,5.72
2023-05-26T12:11:47.406Z,5.35
2023-05-26T12:16:50.488Z,5.25
2023-05-26T12:21:54.608Z,5.82
2023-05-26T12:26:56.333Z,5.17
2023-05-26T12:31:58.194Z,5.07
2023-05-26T12:36:59.940Z,5.32
2023-05-26T12:42:01.606Z,5.72
2023-05-26T12:47:03.228Z,6.03
2023-05-26T12:52:04.914Z,5.18
2023-05-26T12:57:06.487Z,4.72
2023-05-26T13:02:08.607Z,5.32
2023-05-26T13:07:10.344Z,6.00
2023-05-26T13:12:12.019Z,5.28
2023-05-26T13:17:13.596Z,4.72
2023-05-26T13:22:15.212Z,5.63
2023-05-26T13:27:16.777Z,5.85
2023-05-26T13:32:18.401Z,4.97
2023-05-26T13:37:20.036Z,4.28
2023-05-26T13:42:21.743Z,5.75
2023-05-26T13:47:26.145Z,4.80
2023-05-26T13:52:28.415Z,5.10
2023-05-26T13:57:30.770Z,5.50
2023-05-26T14:02:33.238Z,4.97
2023-05-26T14:07:35.052Z,6.07
2023-05-26T14:12:36.682Z,5.40
2023-05-26T14:17:39.068Z,5.45
2023-05-26T14:22:41.261Z,5.05
2023-05-26T14:27:43.236Z,5.60
2023-05-26T14:32:46.402Z,5.25
2023-05-26T14:37:50.163Z,4.90
2023-05-26T14:42:51.747Z,4.78
2023-05-26T14:47:53.899Z,4.80
2023-05-26T14:52:55.545Z,4.40
2023-05-26T14:57:57.105Z,5.55
2023-05-26T15:02:58.754Z,4.63
2023-05-26T15:08:01.476Z,4.95
2023-05-26T15:13:03.182Z,4.93
2023-05-26T15:18:05.897Z,4.95
2023-05-26T15:23:07.904Z,4.30
2023-05-26T15:28:09.643Z,3.80
2023-05-26T15:33:11.276Z,4.70
2023-05-26T15:38:12.905Z,4.78
2023-05-26T15:43:14.858Z,4.65
2023-05-26T15:48:17.883Z,4.07
2023-05-26T15:53:19.541Z,5.18
2023-05-26T15:58:21.218Z,4.60
2023-05-26T16:03:22.909Z,4.07
2023-05-26T16:08:24.525Z,4.03
2023-05-26T16:13:26.076Z,4.55
2023-05-26T16:18:27.666Z,4.35
2023-05-26T16:23:29.480Z,4.07
2023-05-26T16:28:31.729Z,4.00
2023-05-26T16:33:33.335Z,4.30
2023-05-26T16:38:34.968Z,4.47
2023-05-26T16:43:47.902Z,3.95
2023-05-26T16:48:50.315Z,4.28
2023-05-26T16:53:51.875Z,4.63
2023-05-26T16:58:53.481Z,4.53
2023-05-26T17:03:55.052Z,3.70
2023-05-26T17:08:56.792Z,3.67
2023-05-26T17:13:58.389Z,3.40
2023-05-26T17:18:59.947Z,4.30
2023-05-26T17:24:01.641Z,3.55
2023-05-26T17:29:03.220Z,3.40
2023-05-26T17:34:04.859Z,3.30
2023-05-26T17:39:06.985Z,3.58
2023-05-26T17:44:10.666Z,2.65
2023-05-26T17:49:13.763Z,3.70
2023-05-26T17:54:15.297Z,3.33
2023-05-26T17:59:16.876Z,3.00
2023-05-26T18:04:18.619Z,3.65
2023-05-26T18:09:20.269Z,3.17
2023-05-26T18:14:21.879Z,3.97
2023-05-26T18:19:23.459Z,3.47
2023-05-26T18:24:25.135Z,3.05
2023-05-26T18:29:26.709Z,2.38
2023-05-26T18:34:28.301Z,2.83
2023-05-26T18:39:30.290Z,4.45
2023-05-26T18:44:31.831Z,3.05
2023-05-26T18:49:33.542Z,2.65
2023-05-26T18:54:35.118Z,3.38
2023-05-26T18:59:36.662Z,3.13
2023-05-26T19:04:38.523Z,3.40
2023-05-26T19:09:40.063Z,3.72
2023-05-26T19:14:41.619Z,4.40
2023-05-26T19:19:43.167Z,4.93
2023-05-26T19:24:44.833Z,4.32
2023-05-26T19:29:46.389Z,4.20
2023-05-26T19:34:48.164Z,4.18
2023-05-26T19:39:49.694Z,4.97
2023-05-26T19:44:51.236Z,4.72
2023-05-26T19:49:52.970Z,4.10
2023-05-26T19:54:54.500Z,3.17
2023-05-26T19:59:56.096Z,4.45
2023-05-26T20:04:57.628Z,4.88
2023-05-26T20:09:59.160Z,4.15
2023-05-26T20:15:01.918Z,4.22
2023-05-26T20:20:12.637Z,3.90
2023-05-26T20:25:15.356Z,3.50
2023-05-26T20:30:16.941Z,4.40
2023-05-26T20:35:18.696Z,3.55
2023-05-26T20:40:20.321Z,3.10
2023-05-26T20:45:21.865Z,4.50
2023-05-26T20:50:23.563Z,3.53
2023-05-26T20:55:25.583Z,4.40
2023-05-26T21:00:27.127Z,3.72
2023-05-26T21:05:28.696Z,3.50
2023-05-26T21:10:30.229Z,4.03
2023-05-26T21:15:31.860Z,3.80
2023-05-26T21:20:33.492Z,4.15
2023-05-26T21:25:35.041Z,4.45
2023-05-26T21:30:36.670Z,4.38
2023-05-26T21:35:38.276Z,3.85
2023-05-26T21:40:39.809Z,3.33
2023-05-26T21:45:41.350Z,3.50
2023-05-26T21:50:42.960Z,3.13
2023-05-26T21:55:44.539Z,4.05
2023-05-26T22:00:46.094Z,4.15
2023-05-26T22:05:47.713Z,4.32
2023-05-26T22:10:49.277Z,4.00
2023-05-26T22:15:50.845Z,3.75
2023-05-26T22:20:52.449Z,3.72
2023-05-26T22:25:54.401Z,4.18
2023-05-26T22:30:57.762Z,4.05
2023-05-26T22:35:59.462Z,3.85
2023-05-26T22:41:01.086Z,3.90
2023-05-26T22:46:02.636Z,3.63
2023-05-26T22:51:04.305Z,4.07
2023-05-26T22:56:13.534Z,3.92
2023-05-26T23:01:15.980Z,3.85
2023-05-26T23:06:17.651Z,4.30
2023-05-26T23:11:19.383Z,3.92
2023-05-26T23:16:21.066Z,4.95
2023-05-26T23:21:22.698Z,3.90
2023-05-26T23:26:24.299Z,3.78
2023-05-26T23:31:25.916Z,4.03
2023-05-26T23:36:27.619Z,4.35
2023-05-26T23:41:29.261Z,4.38
2023-05-26T23:46:30.930Z,3.63
2023-05-26T23:51:32.515Z,4.22
2023-05-26T23:56:34.204Z,4.55
